sensor_id;sensor_type;location;lat;lon;timestamp;P1;durP1;ratioP1;P2;durP2;ratioP2
72408;SDS011;60402;48.082;11.628;2022-08-19T00:00:04;6.20;;;3.25;;
72408;SDS011;60402;48.082;11.628;2022-08-19T00:02:35;6.18;;;3.03;;
72408;SDS011;60402;48.082;11.628;2022-08-19T00:05:01;6.65;;;2.72;;
72408;SDS011;60402;48.082;11.628;2022-08-19T00:07:27;5.50;;;2.42;;
72408;SDS011;60402;48.082;11.628;2022-08-19T00:09:53;5.25;;;2.58;;
72408;SDS011;60402;48.082;11.628;2022-08-19T00:12:19;6.05;;;2.45;;
72408;SDS011;60402;48.082;11.628;2022-08-19T00:14:45;5.22;;;2.58;;
72408;SDS011;60402;48.082;11.628;2022-08-19T00:17:10;5.75;;;2.80;;
72408;SDS011;60402;48.082;11.628;2022-08-19T00:19:36;5.65;;;2.72;;
72408;SDS011;60402;48.082;11.628;2022-08-19T00:22:01;5.78;;;2.42;;
72408;SDS011;60402;48.082;11.628;2022-08-19T00:24:28;5.32;;;2.58;;
72408;SDS011;60402;48.082;11.628;2022-08-19T00:26:54;5.55;;;2.42;;
72408;SDS011;60402;48.082;11.628;2022-08-19T00:29:20;6.30;;;2.50;;
72408;SDS011;60402;48.082;11.628;2022-08-19T00:31:46;5.88;;;2.60;;
72408;SDS011;60402;48.082;11.628;2022-08-19T00:34:13;4.80;;;2.58;;
72408;SDS011;60402;48.082;11.628;2022-08-19T00:36:39;5.15;;;2.38;;
72408;SDS011;60402;48.082;11.628;2022-08-19T00:39:05;5.10;;;2.42;;
72408;SDS011;60402;48.082;11.628;2022-08-19T00:41:31;5.82;;;2.50;;
72408;SDS011;60402;48.082;11.628;2022-08-19T00:43:58;5.07;;;2.63;;
72408;SDS011;60402;48.082;11.628;2022-08-19T00:46:26;5.55;;;2.30;;
72408;SDS011;60402;48.082;11.628;2022-08-19T00:48:52;5.00;;;2.30;;
72408;SDS011;60402;48.082;11.628;2022-08-19T00:51:18;5.45;;;2.47;;
72408;SDS011;60402;48.082;11.628;2022-08-19T00:53:43;6.53;;;2.97;;
72408;SDS011;60402;48.082;11.628;2022-08-19T00:56:09;6.25;;;2.83;;
72408;SDS011;60402;48.082;11.628;2022-08-19T00:58:35;6.28;;;2.92;;
72408;SDS011;60402;48.082;11.628;2022-08-19T01:01:02;6.68;;;3.20;;
72408;SDS011;60402;48.082;11.628;2022-08-19T01:03:28;5.80;;;2.95;;
72408;SDS011;60402;48.082;11.628;2022-08-19T01:05:54;6.80;;;3.00;;
72408;SDS011;60402;48.082;11.628;2022-08-19T01:08:20;6.13;;;3.03;;
72408;SDS011;60402;48.082;11.628;2022-08-19T01:10:48;7.43;;;2.90;;
72408;SDS011;60402;48.082;11.628;2022-08-19T01:13:17;7.88;;;3.40;;
72408;SDS011;60402;48.082;11.628;2022-08-19T01:15:46;6.53;;;2.83;;
72408;SDS011;60402;48.082;11.628;2022-08-19T01:18:15;6.80;;;3.33;;
72408;SDS011;60402;48.082;11.628;2022-08-19T01:20:43;8.65;;;3.72;;
72408;SDS011;60402;48.082;11.628;2022-08-19T01:23:09;7.13;;;3.28;;
72408;SDS011;60402;48.082;11.628;2022-08-19T01:25:38;8.07;;;3.70;;
72408;SDS011;60402;48.082;11.628;2022-08-19T01:28:06;6.82;;;3.15;;
72408;SDS011;60402;48.082;11.628;2022-08-19T01:30:32;5.68;;;2.78;;
72408;SDS011;60402;48.082;11.628;2022-08-19T01:32:59;5.60;;;2.60;;
72408;SDS011;60402;48.082;11.628;2022-08-19T01:35:26;6.30;;;2.90;;
72408;SDS011;60402;48.082;11.628;2022-08-19T01:40:21;7.45;;;2.78;;
72408;SDS011;60402;48.082;11.628;2022-08-19T01:42:49;6.40;;;2.70;;
72408;SDS011;60402;48.082;11.628;2022-08-19T01:45:15;5.25;;;2.65;;
72408;SDS011;60402;48.082;11.628;2022-08-19T01:47:42;6.45;;;3.05;;
72408;SDS011;60402;48.082;11.628;2022-08-19T01:50:08;6.88;;;3.08;;
72408;SDS011;60402;48.082;11.628;2022-08-19T01:52:36;7.00;;;2.90;;
72408;SDS011;60402;48.082;11.628;2022-08-19T01:55:04;6.53;;;2.97;;
72408;SDS011;60402;48.082;11.628;2022-08-19T01:57:32;5.63;;;2.33;;
72408;SDS011;60402;48.082;11.628;2022-08-19T01:59:58;4.97;;;2.45;;
72408;SDS011;60402;48.082;11.628;2022-08-19T02:02:24;5.50;;;2.60;;
72408;SDS011;60402;48.082;11.628;2022-08-19T02:04:50;5.90;;;2.80;;
72408;SDS011;60402;48.082;11.628;2022-08-19T02:07:15;6.18;;;2.83;;
72408;SDS011;60402;48.082;11.628;2022-08-19T02:09:43;5.05;;;2.45;;
72408;SDS011;60402;48.082;11.628;2022-08-19T02:12:08;5.20;;;2.30;;
72408;SDS011;60402;48.082;11.628;2022-08-19T02:14:35;6.68;;;2.90;;
72408;SDS011;60402;48.082;11.628;2022-08-19T02:17:01;7.18;;;2.72;;
72408;SDS011;60402;48.082;11.628;2022-08-19T02:19:26;5.20;;;2.60;;
72408;SDS011;60402;48.082;11.628;2022-08-19T02:21:52;5.82;;;2.70;;
72408;SDS011;60402;48.082;11.628;2022-08-19T02:24:18;5.32;;;2.67;;
72408;SDS011;60402;48.082;11.628;2022-08-19T02:26:43;6.30;;;2.80;;
72408;SDS011;60402;48.082;11.628;2022-08-19T02:29:08;5.72;;;2.60;;
72408;SDS011;60402;48.082;11.628;2022-08-19T02:31:34;7.25;;;2.95;;
72408;SDS011;60402;48.082;11.628;2022-08-19T02:33:59;5.40;;;2.53;;
72408;SDS011;60402;48.082;11.628;2022-08-19T02:36:25;5.72;;;2.33;;
72408;SDS011;60402;48.082;11.628;2022-08-19T02:38:51;7.00;;;2.70;;
72408;SDS011;60402;48.082;11.628;2022-08-19T02:41:18;5.55;;;2.63;;
72408;SDS011;60402;48.082;11.628;2022-08-19T02:43:47;6.20;;;2.60;;
72408;SDS011;60402;48.082;11.628;2022-08-19T02:46:17;5.05;;;2.42;;
72408;SDS011;60402;48.082;11.628;2022-08-19T02:48:49;5.90;;;2.50;;
72408;SDS011;60402;48.082;11.628;2022-08-19T02:51:24;4.80;;;2.40;;
72408;SDS011;60402;48.082;11.628;2022-08-19T02:53:51;4.90;;;2.35;;
72408;SDS011;60402;48.082;11.628;2022-08-19T02:56:17;5.07;;;2.22;;
72408;SDS011;60402;48.082;11.628;2022-08-19T02:58:43;4.55;;;2.03;;
72408;SDS011;60402;48.082;11.628;2022-08-19T03:01:09;5.43;;;2.20;;
72408;SDS011;60402;48.082;11.628;2022-08-19T03:03:36;4.90;;;2.25;;
72408;SDS011;60402;48.082;11.628;2022-08-19T03:06:09;4.93;;;2.40;;
72408;SDS011;60402;48.082;11.628;2022-08-19T03:08:40;6.95;;;2.58;;
72408;SDS011;60402;48.082;11.628;2022-08-19T03:11:18;5.20;;;2.40;;
72408;SDS011;60402;48.082;11.628;2022-08-19T03:13:46;5.72;;;2.40;;
72408;SDS011;60402;48.082;11.628;2022-08-19T03:16:14;5.63;;;2.67;;
72408;SDS011;60402;48.082;11.628;2022-08-19T03:18:40;5.82;;;2.40;;
72408;SDS011;60402;48.082;11.628;2022-08-19T03:21:06;4.97;;;2.10;;
72408;SDS011;60402;48.082;11.628;2022-08-19T03:23:32;4.35;;;2.17;;
72408;SDS011;60402;48.082;11.628;2022-08-19T03:25:57;4.60;;;2.13;;
72408;SDS011;60402;48.082;11.628;2022-08-19T03:28:23;4.60;;;2.20;;
72408;SDS011;60402;48.082;11.628;2022-08-19T03:30:58;4.72;;;2.35;;
72408;SDS011;60402;48.082;11.628;2022-08-19T03:33:27;4.13;;;1.90;;
72408;SDS011;60402;48.082;11.628;2022-08-19T03:36:04;5.72;;;2.35;;
72408;SDS011;60402;48.082;11.628;2022-08-19T03:38:42;4.90;;;2.28;;
72408;SDS011;60402;48.082;11.628;2022-08-19T03:43:37;5.65;;;2.40;;
72408;SDS011;60402;48.082;11.628;2022-08-19T03:46:10;6.10;;;2.40;;
72408;SDS011;60402;48.082;11.628;2022-08-19T03:48:39;4.78;;;2.35;;
72408;SDS011;60402;48.082;11.628;2022-08-19T03:51:06;4.90;;;2.30;;
72408;SDS011;60402;48.082;11.628;2022-08-19T03:53:32;6.40;;;2.40;;
72408;SDS011;60402;48.082;11.628;2022-08-19T03:55:59;5.05;;;2.25;;
72408;SDS011;60402;48.082;11.628;2022-08-19T03:58:26;5.30;;;2.30;;
72408;SDS011;60402;48.082;11.628;2022-08-19T04:00:53;4.72;;;2.22;;
72408;SDS011;60402;48.082;11.628;2022-08-19T04:03:20;5.38;;;2.30;;
72408;SDS011;60402;48.082;11.628;2022-08-19T04:05:46;5.10;;;2.45;;
72408;SDS011;60402;48.082;11.628;2022-08-19T04:08:11;5.20;;;2.55;;
72408;SDS011;60402;48.082;11.628;2022-08-19T04:10:38;4.95;;;2.38;;
72408;SDS011;60402;48.082;11.628;2022-08-19T04:13:04;4.30;;;2.40;;
72408;SDS011;60402;48.082;11.628;2022-08-19T04:15:31;5.85;;;2.70;;
72408;SDS011;60402;48.082;11.628;2022-08-19T04:18:00;5.22;;;2.03;;
72408;SDS011;60402;48.082;11.628;2022-08-19T04:20:26;5.07;;;2.67;;
72408;SDS011;60402;48.082;11.628;2022-08-19T04:22:51;5.50;;;2.88;;
72408;SDS011;60402;48.082;11.628;2022-08-19T04:25:17;5.55;;;2.80;;
72408;SDS011;60402;48.082;11.628;2022-08-19T04:27:42;5.53;;;2.25;;
72408;SDS011;60402;48.082;11.628;2022-08-19T04:32:36;5.72;;;2.42;;
72408;SDS011;60402;48.082;11.628;2022-08-19T04:35:02;5.13;;;2.50;;
72408;SDS011;60402;48.082;11.628;2022-08-19T04:37:27;5.43;;;2.58;;
72408;SDS011;60402;48.082;11.628;2022-08-19T04:39:57;4.88;;;2.30;;
72408;SDS011;60402;48.082;11.628;2022-08-19T04:42:41;6.00;;;2.85;;
72408;SDS011;60402;48.082;11.628;2022-08-19T04:45:08;5.20;;;2.45;;
72408;SDS011;60402;48.082;11.628;2022-08-19T04:47:37;5.07;;;2.30;;
72408;SDS011;60402;48.082;11.628;2022-08-19T04:50:04;5.43;;;2.50;;
72408;SDS011;60402;48.082;11.628;2022-08-19T04:52:30;4.75;;;2.20;;
72408;SDS011;60402;48.082;11.628;2022-08-19T04:54:57;5.68;;;2.55;;
72408;SDS011;60402;48.082;11.628;2022-08-19T04:57:22;5.28;;;2.20;;
72408;SDS011;60402;48.082;11.628;2022-08-19T04:59:48;5.43;;;2.40;;
72408;SDS011;60402;48.082;11.628;2022-08-19T05:02:13;4.43;;;2.03;;
72408;SDS011;60402;48.082;11.628;2022-08-19T05:04:39;6.78;;;2.80;;
72408;SDS011;60402;48.082;11.628;2022-08-19T05:07:05;5.80;;;2.40;;
72408;SDS011;60402;48.082;11.628;2022-08-19T05:09:31;6.13;;;2.75;;
72408;SDS011;60402;48.082;11.628;2022-08-19T05:11:56;6.07;;;2.30;;
72408;SDS011;60402;48.082;11.628;2022-08-19T05:14:22;5.30;;;2.30;;
72408;SDS011;60402;48.082;11.628;2022-08-19T05:16:48;4.50;;;2.20;;
72408;SDS011;60402;48.082;11.628;2022-08-19T05:19:13;6.22;;;2.50;;
72408;SDS011;60402;48.082;11.628;2022-08-19T05:21:57;6.55;;;2.38;;
72408;SDS011;60402;48.082;11.628;2022-08-19T05:24:40;5.72;;;2.30;;
72408;SDS011;60402;48.082;11.628;2022-08-19T05:27:06;7.60;;;2.38;;
72408;SDS011;60402;48.082;11.628;2022-08-19T05:29:32;5.22;;;2.13;;
72408;SDS011;60402;48.082;11.628;2022-08-19T05:31:59;5.53;;;2.63;;
72408;SDS011;60402;48.082;11.628;2022-08-19T05:34:26;4.85;;;2.22;;
72408;SDS011;60402;48.082;11.628;2022-08-19T05:36:53;4.38;;;2.20;;
72408;SDS011;60402;48.082;11.628;2022-08-19T05:39:22;5.95;;;2.30;;
72408;SDS011;60402;48.082;11.628;2022-08-19T05:41:50;3.85;;;2.20;;
72408;SDS011;60402;48.082;11.628;2022-08-19T05:44:19;5.65;;;2.25;;
72408;SDS011;60402;48.082;11.628;2022-08-19T05:46:46;5.65;;;2.53;;
72408;SDS011;60402;48.082;11.628;2022-08-19T05:49:12;5.53;;;2.58;;
72408;SDS011;60402;48.082;11.628;2022-08-19T05:51:39;5.13;;;2.30;;
72408;SDS011;60402;48.082;11.628;2022-08-19T05:54:04;6.03;;;2.63;;
72408;SDS011;60402;48.082;11.628;2022-08-19T05:56:31;6.00;;;2.45;;
72408;SDS011;60402;48.082;11.628;2022-08-19T05:58:57;6.80;;;2.90;;
72408;SDS011;60402;48.082;11.628;2022-08-19T06:01:23;6.07;;;3.05;;
72408;SDS011;60402;48.082;11.628;2022-08-19T06:03:49;6.05;;;2.78;;
72408;SDS011;60402;48.082;11.628;2022-08-19T06:06:15;6.47;;;3.08;;
72408;SDS011;60402;48.082;11.628;2022-08-19T06:08:41;7.93;;;3.78;;
72408;SDS011;60402;48.082;11.628;2022-08-19T06:11:11;7.13;;;3.30;;
72408;SDS011;60402;48.082;11.628;2022-08-19T06:13:40;8.55;;;3.92;;
72408;SDS011;60402;48.082;11.628;2022-08-19T06:16:05;8.32;;;3.95;;
72408;SDS011;60402;48.082;11.628;2022-08-19T06:18:30;7.63;;;3.70;;
72408;SDS011;60402;48.082;11.628;2022-08-19T06:20:56;8.32;;;3.50;;
72408;SDS011;60402;48.082;11.628;2022-08-19T06:23:21;9.55;;;3.40;;
72408;SDS011;60402;48.082;11.628;2022-08-19T06:25:47;8.63;;;4.13;;
72408;SDS011;60402;48.082;11.628;2022-08-19T06:28:12;7.85;;;3.97;;
72408;SDS011;60402;48.082;11.628;2022-08-19T06:30:37;7.75;;;3.60;;
72408;SDS011;60402;48.082;11.628;2022-08-19T06:33:03;8.93;;;3.85;;
72408;SDS011;60402;48.082;11.628;2022-08-19T06:35:28;8.60;;;3.85;;
72408;SDS011;60402;48.082;11.628;2022-08-19T06:37:54;8.85;;;4.32;;
72408;SDS011;60402;48.082;11.628;2022-08-19T06:40:20;8.57;;;4.00;;
72408;SDS011;60402;48.082;11.628;2022-08-19T06:42:45;8.05;;;4.07;;
72408;SDS011;60402;48.082;11.628;2022-08-19T06:45:11;8.93;;;4.50;;
72408;SDS011;60402;48.082;11.628;2022-08-19T06:47:36;9.85;;;4.03;;
72408;SDS011;60402;48.082;11.628;2022-08-19T06:50:02;9.25;;;4.60;;
72408;SDS011;60402;48.082;11.628;2022-08-19T06:52:30;10.45;;;4.22;;
72408;SDS011;60402;48.082;11.628;2022-08-19T06:54:57;8.45;;;4.28;;
72408;SDS011;60402;48.082;11.628;2022-08-19T06:57:23;9.35;;;4.35;;
72408;SDS011;60402;48.082;11.628;2022-08-19T06:59:49;8.88;;;4.70;;
72408;SDS011;60402;48.082;11.628;2022-08-19T07:02:15;9.02;;;4.80;;
72408;SDS011;60402;48.082;11.628;2022-08-19T07:04:40;10.27;;;4.95;;
72408;SDS011;60402;48.082;11.628;2022-08-19T07:07:07;10.43;;;4.85;;
72408;SDS011;60402;48.082;11.628;2022-08-19T07:09:36;9.38;;;4.95;;
72408;SDS011;60402;48.082;11.628;2022-08-19T07:12:04;10.25;;;5.15;;
72408;SDS011;60402;48.082;11.628;2022-08-19T07:14:32;10.15;;;5.35;;
72408;SDS011;60402;48.082;11.628;2022-08-19T07:17:01;12.82;;;7.15;;
72408;SDS011;60402;48.082;11.628;2022-08-19T07:19:27;10.32;;;5.38;;
72408;SDS011;60402;48.082;11.628;2022-08-19T07:21:54;11.82;;;5.72;;
72408;SDS011;60402;48.082;11.628;2022-08-19T07:24:21;12.68;;;5.93;;
72408;SDS011;60402;48.082;11.628;2022-08-19T07:26:49;11.68;;;5.78;;
72408;SDS011;60402;48.082;11.628;2022-08-19T07:29:16;15.10;;;6.78;;
72408;SDS011;60402;48.082;11.628;2022-08-19T07:31:41;12.55;;;6.38;;
72408;SDS011;60402;48.082;11.628;2022-08-19T07:34:08;12.93;;;6.63;;
72408;SDS011;60402;48.082;11.628;2022-08-19T07:36:36;13.77;;;7.10;;
72408;SDS011;60402;48.082;11.628;2022-08-19T07:39:07;12.90;;;6.82;;
72408;SDS011;60402;48.082;11.628;2022-08-19T07:41:35;13.27;;;6.70;;
72408;SDS011;60402;48.082;11.628;2022-08-19T07:44:02;12.55;;;6.70;;
72408;SDS011;60402;48.082;11.628;2022-08-19T07:46:33;12.90;;;6.75;;
72408;SDS011;60402;48.082;11.628;2022-08-19T07:49:02;13.90;;;6.53;;
72408;SDS011;60402;48.082;11.628;2022-08-19T07:51:29;14.88;;;7.57;;
72408;SDS011;60402;48.082;11.628;2022-08-19T07:53:54;15.10;;;7.63;;
72408;SDS011;60402;48.082;11.628;2022-08-19T07:56:20;14.32;;;7.18;;
72408;SDS011;60402;48.082;11.628;2022-08-19T07:58:47;12.93;;;6.78;;
72408;SDS011;60402;48.082;11.628;2022-08-19T08:01:15;14.23;;;7.88;;
72408;SDS011;60402;48.082;11.628;2022-08-19T08:03:46;14.93;;;8.57;;
72408;SDS011;60402;48.082;11.628;2022-08-19T08:06:31;15.45;;;7.40;;
72408;SDS011;60402;48.082;11.628;2022-08-19T08:09:17;14.73;;;7.43;;
72408;SDS011;60402;48.082;11.628;2022-08-19T08:14:25;14.73;;;7.47;;
72408;SDS011;60402;48.082;11.628;2022-08-19T08:16:54;15.73;;;7.93;;
72408;SDS011;60402;48.082;11.628;2022-08-19T08:19:21;15.20;;;7.25;;
72408;SDS011;60402;48.082;11.628;2022-08-19T08:21:48;15.68;;;7.38;;
72408;SDS011;60402;48.082;11.628;2022-08-19T08:24:14;14.65;;;7.88;;
72408;SDS011;60402;48.082;11.628;2022-08-19T08:26:40;14.40;;;7.05;;
72408;SDS011;60402;48.082;11.628;2022-08-19T08:29:06;14.40;;;7.70;;
72408;SDS011;60402;48.082;11.628;2022-08-19T08:31:35;13.02;;;7.25;;
72408;SDS011;60402;48.082;11.628;2022-08-19T08:34:00;16.95;;;8.10;;
72408;SDS011;60402;48.082;11.628;2022-08-19T08:36:28;14.95;;;8.00;;
72408;SDS011;60402;48.082;11.628;2022-08-19T08:38:58;15.07;;;7.65;;
72408;SDS011;60402;48.082;11.628;2022-08-19T08:44:46;12.90;;;7.18;;
72408;SDS011;60402;48.082;11.628;2022-08-19T08:47:36;13.35;;;7.07;;
72408;SDS011;60402;48.082;11.628;2022-08-19T08:50:06;15.30;;;8.05;;
72408;SDS011;60402;48.082;11.628;2022-08-19T08:52:42;13.50;;;7.53;;
72408;SDS011;60402;48.082;11.628;2022-08-19T08:55:13;14.77;;;7.97;;
72408;SDS011;60402;48.082;11.628;2022-08-19T09:00:18;14.98;;;7.65;;
72408;SDS011;60402;48.082;11.628;2022-08-19T09:02:50;12.77;;;6.90;;
72408;SDS011;60402;48.082;11.628;2022-08-19T09:05:15;16.00;;;7.55;;
72408;SDS011;60402;48.082;11.628;2022-08-19T09:10:18;14.68;;;7.63;;
72408;SDS011;60402;48.082;11.628;2022-08-19T09:15:46;15.85;;;7.18;;
72408;SDS011;60402;48.082;11.628;2022-08-19T09:18:16;14.13;;;6.72;;
72408;SDS011;60402;48.082;11.628;2022-08-19T09:20:43;12.70;;;6.60;;
72408;SDS011;60402;48.082;11.628;2022-08-19T09:23:08;14.13;;;6.93;;
72408;SDS011;60402;48.082;11.628;2022-08-19T09:25:35;11.95;;;6.20;;
72408;SDS011;60402;48.082;11.628;2022-08-19T09:28:01;13.10;;;6.95;;
72408;SDS011;60402;48.082;11.628;2022-08-19T09:30:31;11.35;;;6.20;;
72408;SDS011;60402;48.082;11.628;2022-08-19T09:32:59;11.73;;;6.18;;
72408;SDS011;60402;48.082;11.628;2022-08-19T09:35:27;11.18;;;5.93;;
72408;SDS011;60402;48.082;11.628;2022-08-19T09:37:55;12.35;;;6.20;;
72408;SDS011;60402;48.082;11.628;2022-08-19T09:40:24;11.68;;;6.13;;
72408;SDS011;60402;48.082;11.628;2022-08-19T09:42:52;10.85;;;5.95;;
72408;SDS011;60402;48.082;11.628;2022-08-19T09:45:19;13.30;;;6.38;;
72408;SDS011;60402;48.082;11.628;2022-08-19T09:47:46;12.30;;;6.13;;
72408;SDS011;60402;48.082;11.628;2022-08-19T09:50:12;10.50;;;5.90;;
72408;SDS011;60402;48.082;11.628;2022-08-19T09:52:38;14.32;;;6.38;;
72408;SDS011;60402;48.082;11.628;2022-08-19T09:55:07;12.70;;;6.80;;
72408;SDS011;60402;48.082;11.628;2022-08-19T09:57:34;10.77;;;5.68;;
72408;SDS011;60402;48.082;11.628;2022-08-19T10:00:00;12.07;;;6.13;;
72408;SDS011;60402;48.082;11.628;2022-08-19T10:02:25;12.50;;;6.00;;
72408;SDS011;60402;48.082;11.628;2022-08-19T10:04:51;11.15;;;6.40;;
72408;SDS011;60402;48.082;11.628;2022-08-19T10:07:35;11.15;;;5.68;;
72408;SDS011;60402;48.082;11.628;2022-08-19T10:10:02;13.10;;;6.40;;
72408;SDS011;60402;48.082;11.628;2022-08-19T10:12:31;10.95;;;5.72;;
72408;SDS011;60402;48.082;11.628;2022-08-19T10:14:56;10.38;;;5.90;;
72408;SDS011;60402;48.082;11.628;2022-08-19T10:17:21;11.30;;;6.57;;
72408;SDS011;60402;48.082;11.628;2022-08-19T10:19:47;10.82;;;5.57;;
72408;SDS011;60402;48.082;11.628;2022-08-19T10:22:12;9.73;;;5.18;;
72408;SDS011;60402;48.082;11.628;2022-08-19T10:24:38;11.40;;;5.65;;
72408;SDS011;60402;48.082;11.628;2022-08-19T10:27:04;10.30;;;5.20;;
72408;SDS011;60402;48.082;11.628;2022-08-19T10:29:30;10.13;;;5.18;;
72408;SDS011;60402;48.082;11.628;2022-08-19T10:31:57;10.10;;;4.97;;
72408;SDS011;60402;48.082;11.628;2022-08-19T10:34:25;11.00;;;5.32;;
72408;SDS011;60402;48.082;11.628;2022-08-19T10:36:50;8.60;;;4.72;;
72408;SDS011;60402;48.082;11.628;2022-08-19T10:39:16;10.45;;;5.28;;
72408;SDS011;60402;48.082;11.628;2022-08-19T10:41:41;11.75;;;5.90;;
72408;SDS011;60402;48.082;11.628;2022-08-19T10:44:09;10.43;;;5.32;;
72408;SDS011;60402;48.082;11.628;2022-08-19T10:46:37;11.88;;;5.25;;
72408;SDS011;60402;48.082;11.628;2022-08-19T10:49:09;9.68;;;5.38;;
72408;SDS011;60402;48.082;11.628;2022-08-19T10:51:36;9.77;;;4.70;;
72408;SDS011;60402;48.082;11.628;2022-08-19T10:54:21;9.10;;;4.63;;
72408;SDS011;60402;48.082;11.628;2022-08-19T10:56:47;8.77;;;4.53;;
72408;SDS011;60402;48.082;11.628;2022-08-19T10:59:16;7.97;;;4.20;;
72408;SDS011;60402;48.082;11.628;2022-08-19T11:01:46;10.00;;;4.95;;
72408;SDS011;60402;48.082;11.628;2022-08-19T11:04:12;8.32;;;4.30;;
72408;SDS011;60402;48.082;11.628;2022-08-19T11:06:40;8.45;;;4.35;;
72408;SDS011;60402;48.082;11.628;2022-08-19T11:09:08;8.07;;;4.28;;
72408;SDS011;60402;48.082;11.628;2022-08-19T11:11:34;8.25;;;4.15;;
72408;SDS011;60402;48.082;11.628;2022-08-19T11:14:09;7.07;;;3.78;;
72408;SDS011;60402;48.082;11.628;2022-08-19T11:16:37;8.57;;;4.18;;
72408;SDS011;60402;48.082;11.628;2022-08-19T11:19:04;6.82;;;3.47;;
72408;SDS011;60402;48.082;11.628;2022-08-19T11:21:34;6.45;;;3.30;;
72408;SDS011;60402;48.082;11.628;2022-08-19T11:24:03;6.50;;;3.42;;
72408;SDS011;60402;48.082;11.628;2022-08-19T11:26:32;7.60;;;3.75;;
72408;SDS011;60402;48.082;11.628;2022-08-19T11:29:02;6.97;;;3.42;;
72408;SDS011;60402;48.082;11.628;2022-08-19T11:31:29;6.38;;;3.47;;
72408;SDS011;60402;48.082;11.628;2022-08-19T11:33:57;7.38;;;3.85;;
72408;SDS011;60402;48.082;11.628;2022-08-19T11:36:24;6.47;;;3.30;;
72408;SDS011;60402;48.082;11.628;2022-08-19T11:38:50;7.07;;;3.28;;
72408;SDS011;60402;48.082;11.628;2022-08-19T11:41:17;5.68;;;3.10;;
72408;SDS011;60402;48.082;11.628;2022-08-19T11:43:44;6.55;;;3.30;;
72408;SDS011;60402;48.082;11.628;2022-08-19T11:46:10;7.38;;;3.17;;
72408;SDS011;60402;48.082;11.628;2022-08-19T11:48:37;7.80;;;3.35;;
72408;SDS011;60402;48.082;11.628;2022-08-19T11:51:04;6.97;;;3.80;;
72408;SDS011;60402;48.082;11.628;2022-08-19T11:53:32;5.95;;;3.10;;
72408;SDS011;60402;48.082;11.628;2022-08-19T11:55:59;6.13;;;3.35;;
72408;SDS011;60402;48.082;11.628;2022-08-19T11:58:24;8.43;;;4.85;;
72408;SDS011;60402;48.082;11.628;2022-08-19T12:00:54;7.78;;;4.38;;
72408;SDS011;60402;48.082;11.628;2022-08-19T12:03:19;8.60;;;4.53;;
72408;SDS011;60402;48.082;11.628;2022-08-19T12:05:45;7.55;;;4.05;;
72408;SDS011;60402;48.082;11.628;2022-08-19T12:08:10;7.95;;;4.00;;
72408;SDS011;60402;48.082;11.628;2022-08-19T12:10:37;7.72;;;3.78;;
72408;SDS011;60402;48.082;11.628;2022-08-19T12:13:04;7.82;;;3.58;;
72408;SDS011;60402;48.082;11.628;2022-08-19T12:15:39;7.00;;;3.03;;
72408;SDS011;60402;48.082;11.628;2022-08-19T12:18:05;6.57;;;3.00;;
72408;SDS011;60402;48.082;11.628;2022-08-19T12:20:35;6.20;;;2.80;;
72408;SDS011;60402;48.082;11.628;2022-08-19T12:23:03;6.45;;;2.90;;
72408;SDS011;60402;48.082;11.628;2022-08-19T12:25:30;6.90;;;2.78;;
72408;SDS011;60402;48.082;11.628;2022-08-19T12:27:56;4.90;;;2.35;;
72408;SDS011;60402;48.082;11.628;2022-08-19T12:30:22;4.13;;;2.05;;
72408;SDS011;60402;48.082;11.628;2022-08-19T12:32:47;3.45;;;1.60;;
72408;SDS011;60402;48.082;11.628;2022-08-19T12:35:13;2.63;;;1.27;;
72408;SDS011;60402;48.082;11.628;2022-08-19T12:37:39;3.47;;;1.10;;
72408;SDS011;60402;48.082;11.628;2022-08-19T12:40:09;2.83;;;1.25;;
72408;SDS011;60402;48.082;11.628;2022-08-19T12:42:36;2.92;;;1.25;;
72408;SDS011;60402;48.082;11.628;2022-08-19T12:45:06;3.90;;;1.27;;
72408;SDS011;60402;48.082;11.628;2022-08-19T12:47:32;3.05;;;1.33;;
72408;SDS011;60402;48.082;11.628;2022-08-19T12:49:57;2.95;;;1.30;;
72408;SDS011;60402;48.082;11.628;2022-08-19T12:52:24;2.13;;;1.00;;
72408;SDS011;60402;48.082;11.628;2022-08-19T12:54:51;1.92;;;1.00;;
72408;SDS011;60402;48.082;11.628;2022-08-19T12:57:17;1.80;;;0.90;;
72408;SDS011;60402;48.082;11.628;2022-08-19T12:59:42;1.77;;;0.90;;
72408;SDS011;60402;48.082;11.628;2022-08-19T13:02:08;1.67;;;0.98;;
72408;SDS011;60402;48.082;11.628;2022-08-19T13:04:34;1.25;;;0.75;;
72408;SDS011;60402;48.082;11.628;2022-08-19T13:07:02;1.73;;;0.90;;
72408;SDS011;60402;48.082;11.628;2022-08-19T13:09:27;1.42;;;1.00;;
72408;SDS011;60402;48.082;11.628;2022-08-19T13:11:53;1.90;;;0.90;;
72408;SDS011;60402;48.082;11.628;2022-08-19T13:14:18;1.98;;;1.00;;
72408;SDS011;60402;48.082;11.628;2022-08-19T13:16:44;1.67;;;0.70;;
72408;SDS011;60402;48.082;11.628;2022-08-19T13:19:09;1.98;;;0.88;;
72408;SDS011;60402;48.082;11.628;2022-08-19T13:21:35;2.38;;;0.77;;
72408;SDS011;60402;48.082;11.628;2022-08-19T13:24:01;1.45;;;0.70;;
72408;SDS011;60402;48.082;11.628;2022-08-19T13:26:26;2.05;;;0.88;;
72408;SDS011;60402;48.082;11.628;2022-08-19T13:28:52;2.53;;;0.90;;
72408;SDS011;60402;48.082;11.628;2022-08-19T13:31:38;1.75;;;0.90;;
72408;SDS011;60402;48.082;11.628;2022-08-19T13:34:29;4.15;;;1.15;;
72408;SDS011;60402;48.082;11.628;2022-08-19T13:36:59;2.60;;;1.23;;
72408;SDS011;60402;48.082;11.628;2022-08-19T13:39:28;3.25;;;1.30;;
72408;SDS011;60402;48.082;11.628;2022-08-19T13:41:54;2.17;;;1.00;;
72408;SDS011;60402;48.082;11.628;2022-08-19T13:44:20;2.33;;;0.90;;
72408;SDS011;60402;48.082;11.628;2022-08-19T13:46:46;2.08;;;1.00;;
72408;SDS011;60402;48.082;11.628;2022-08-19T13:49:13;1.92;;;1.10;;
72408;SDS011;60402;48.082;11.628;2022-08-19T13:51:40;2.25;;;0.80;;
72408;SDS011;60402;48.082;11.628;2022-08-19T13:54:06;2.90;;;1.10;;
72408;SDS011;60402;48.082;11.628;2022-08-19T13:56:33;2.53;;;1.15;;
72408;SDS011;60402;48.082;11.628;2022-08-19T13:58:58;3.22;;;1.20;;
72408;SDS011;60402;48.082;11.628;2022-08-19T14:01:24;3.90;;;1.30;;
72408;SDS011;60402;48.082;11.628;2022-08-19T14:03:49;2.38;;;0.95;;
72408;SDS011;60402;48.082;11.628;2022-08-19T14:06:14;2.80;;;1.20;;
72408;SDS011;60402;48.082;11.628;2022-08-19T14:08:41;2.35;;;1.05;;
72408;SDS011;60402;48.082;11.628;2022-08-19T14:11:07;1.60;;;1.00;;
72408;SDS011;60402;48.082;11.628;2022-08-19T14:13:33;2.60;;;1.30;;
72408;SDS011;60402;48.082;11.628;2022-08-19T14:15:59;2.13;;;0.95;;
72408;SDS011;60402;48.082;11.628;2022-08-19T14:18:24;2.20;;;1.00;;
72408;SDS011;60402;48.082;11.628;2022-08-19T14:20:50;3.50;;;1.27;;
72408;SDS011;60402;48.082;11.628;2022-08-19T14:23:16;2.33;;;1.15;;
72408;SDS011;60402;48.082;11.628;2022-08-19T14:25:42;2.97;;;1.15;;
72408;SDS011;60402;48.082;11.628;2022-08-19T14:28:09;3.05;;;1.30;;
72408;SDS011;60402;48.082;11.628;2022-08-19T14:30:35;3.70;;;1.38;;
72408;SDS011;60402;48.082;11.628;2022-08-19T14:33:03;4.15;;;1.65;;
72408;SDS011;60402;48.082;11.628;2022-08-19T14:35:30;3.85;;;1.75;;
72408;SDS011;60402;48.082;11.628;2022-08-19T14:37:59;3.50;;;1.52;;
72408;SDS011;60402;48.082;11.628;2022-08-19T14:40:26;2.28;;;1.50;;
72408;SDS011;60402;48.082;11.628;2022-08-19T14:42:58;3.42;;;1.63;;
72408;SDS011;60402;48.082;11.628;2022-08-19T14:45:26;2.83;;;1.33;;
72408;SDS011;60402;48.082;11.628;2022-08-19T14:47:52;3.22;;;1.55;;
72408;SDS011;60402;48.082;11.628;2022-08-19T14:50:18;3.58;;;1.58;;
72408;SDS011;60402;48.082;11.628;2022-08-19T14:52:48;2.90;;;1.50;;